createdAt,value
2017-09-05T00:00:53.306Z,59.44
2017-09-05T00:02:47.786Z,59.44
2017-09-05T00:03:48.804Z,59.44
2017-09-05T00:05:42.276Z,59.85
2017-09-05T00:06:42.298Z,59.63
2017-09-05T00:08:35.747Z,60.01
2017-09-05T00:09:35.795Z,60.21
2017-09-05T00:11:30.267Z,60.01
2017-09-05T00:12:30.291Z,60.11
2017-09-05T00:14:23.763Z,60.11
2017-09-05T00:15:23.779Z,59.72
2017-09-05T00:17:18.243Z,60.39
2017-09-05T00:18:18.284Z,60.11
2017-09-05T00:20:12.771Z,60.30
2017-09-05T00:21:12.779Z,60.01
2017-09-05T00:23:06.252Z,60.39
2017-09-05T00:24:06.275Z,60.39
2017-09-05T00:26:00.763Z,60.69
2017-09-05T00:27:00.779Z,60.72
2017-09-05T00:28:55.236Z,60.69
2017-09-05T00:29:56.269Z,60.78
2017-09-05T00:31:49.757Z,60.88
2017-09-05T00:32:49.774Z,60.69
2017-09-05T00:34:44.228Z,60.88
2017-09-05T00:35:44.263Z,61.26
2017-09-05T00:37:38.787Z,61.36
2017-09-05T00:38:38.764Z,61.84
2017-09-05T00:40:33.303Z,61.55
2017-09-05T00:41:33.268Z,61.55
2017-09-05T00:43:27.748Z,61.74
2017-09-05T00:44:27.773Z,61.55
2017-09-05T00:46:22.220Z,62.03
2017-09-05T00:47:22.260Z,62.61
2017-09-05T00:49:16.740Z,62.23
2017-09-05T00:50:16.757Z,62.32
2017-09-05T00:52:11.285Z,62.41
2017-09-05T00:53:11.333Z,62.23
2017-09-05T00:55:04.749Z,62.13
2017-09-05T00:56:04.783Z,62.32
2017-09-05T00:58:00.742Z,62.61
2017-09-05T00:59:00.757Z,62.41
2017-09-05T01:00:55.237Z,62.71
2017-09-05T01:01:55.253Z,62.68
2017-09-05T01:03:49.741Z,62.51
2017-09-05T01:04:49.902Z,63.18
2017-09-05T01:06:44.246Z,63.09
2017-09-05T01:07:44.261Z,63.64
2017-09-05T01:09:38.741Z,63.38
2017-09-05T01:10:38.757Z,63.67
2017-09-05T01:12:32.302Z,63.86
2017-09-05T01:13:32.302Z,63.67
2017-09-05T01:15:26.789Z,63.57
2017-09-05T01:16:26.837Z,63.67
2017-09-05T01:18:21.269Z,63.95
2017-09-05T01:19:21.309Z,63.76
2017-09-05T01:21:15.821Z,64.05
2017-09-05T01:22:15.830Z,63.95
2017-09-05T01:24:10.277Z,64.05
2017-09-05T01:25:10.309Z,64.34
2017-09-05T01:27:04.811Z,64.34
2017-09-05T01:28:04.831Z,64.34
2017-09-05T01:29:59.576Z,64.43
2017-09-05T01:30:59.339Z,64.53
2017-09-05T01:32:53.792Z,64.89
2017-09-05T01:33:53.816Z,64.43
2017-09-05T01:35:48.392Z,64.89
2017-09-05T01:36:48.320Z,65.46
2017-09-05T01:38:42.793Z,65.17
2017-09-05T01:39:42.831Z,65.27
2017-09-05T01:41:36.353Z,66.14
2017-09-05T01:42:36.360Z,65.94
2017-09-05T01:44:31.376Z,65.94
2017-09-05T01:45:30.848Z,66.33
2017-09-05T01:47:25.328Z,66.42
2017-09-05T01:48:25.385Z,66.42
2017-09-05T01:50:19.808Z,66.14
2017-09-05T01:51:19.857Z,66.23
2017-09-05T01:53:13.345Z,66.42
2017-09-05T01:54:13.353Z,66.71
2017-09-05T01:56:07.825Z,66.52
2017-09-05T01:57:07.857Z,66.42
2017-09-05T01:59:01.482Z,67.10
2017-09-05T02:00:01.361Z,67.00
2017-09-05T02:01:54.865Z,67.19
2017-09-05T02:02:54.849Z,67.48
2017-09-05T02:04:48.337Z,67.48
2017-09-05T02:05:48.337Z,67.10
2017-09-05T02:07:41.809Z,67.86
2017-09-05T02:08:41.850Z,67.86
2017-09-05T02:10:36.338Z,67.58
2017-09-05T02:11:36.506Z,67.68
2017-09-05T02:13:30.818Z,67.58
2017-09-05T02:14:30.850Z,68.25
2017-09-05T02:16:25.353Z,68.15
2017-09-05T02:17:25.346Z,68.25
2017-09-05T02:19:18.801Z,68.35
2017-09-05T02:20:18.833Z,68.25
2017-09-05T02:22:13.346Z,68.25
2017-09-05T02:23:13.330Z,67.77
2017-09-05T02:25:09.300Z,68.35
2017-09-05T02:26:09.338Z,68.54
2017-09-05T02:28:04.458Z,69.02
2017-09-05T02:29:03.899Z,68.63
2017-09-05T02:30:57.354Z,68.73
2017-09-05T02:31:57.346Z,68.92
2017-09-05T02:33:52.826Z,68.63
2017-09-05T02:34:52.873Z,69.50
2017-09-05T02:36:46.340Z,69.79
2017-09-05T02:37:46.347Z,69.79
2017-09-05T02:39:40.826Z,69.40
2017-09-05T02:40:40.863Z,69.79
2017-09-05T02:42:34.433Z,70.56
2017-09-05T02:43:34.363Z,69.98
2017-09-05T02:45:28.860Z,70.17
2017-09-05T02:46:28.988Z,70.46
2017-09-05T02:48:23.347Z,70.27
2017-09-05T02:49:23.387Z,70.37
2017-09-05T02:51:17.963Z,70.56
2017-09-05T02:52:18.896Z,70.65
2017-09-05T02:54:12.340Z,71.23
2017-09-05T02:55:12.379Z,70.94
2017-09-05T02:57:05.862Z,71.42
2017-09-05T02:58:05.867Z,70.84
2017-09-05T03:00:00.323Z,70.75
2017-09-05T03:01:00.363Z,71.10
2017-09-05T03:02:53.844Z,71.87
2017-09-05T03:03:53.861Z,71.39
2017-09-05T03:05:48.908Z,71.58
2017-09-05T03:06:48.452Z,71.87
2017-09-05T03:08:42.844Z,71.71
2017-09-05T03:09:42.851Z,72.00
2017-09-05T03:11:37.419Z,72.00
2017-09-05T03:12:37.340Z,71.91
2017-09-05T03:14:32.835Z,72.06
2017-09-05T03:15:32.837Z,72.34
2017-09-05T03:17:27.292Z,72.19
2017-09-05T03:18:27.333Z,71.91
2017-09-05T03:20:21.812Z,72.09
2017-09-05T03:21:21.828Z,72.06
2017-09-05T03:23:16.332Z,72.06
2017-09-05T03:24:16.317Z,72.16
2017-09-05T03:26:10.100Z,72.44
2017-09-05T03:27:09.909Z,72.64
2017-09-05T03:29:03.404Z,72.73
2017-09-05T03:30:03.477Z,72.92
2017-09-05T03:31:57.876Z,72.96
2017-09-05T03:32:57.893Z,72.64
2017-09-05T03:34:52.365Z,72.44
2017-09-05T03:35:52.381Z,72.54
2017-09-05T03:37:46.861Z,72.96
2017-09-05T03:38:46.877Z,72.83
2017-09-05T03:40:41.341Z,72.73
2017-09-05T03:41:50.021Z,72.34
2017-09-05T03:43:35.866Z,72.73
2017-09-05T03:44:35.886Z,72.44
2017-09-05T03:46:30.326Z,72.64
2017-09-05T03:47:30.487Z,72.34
2017-09-05T03:49:23.879Z,72.92
2017-09-05T03:50:23.870Z,72.54
2017-09-05T03:52:19.574Z,73.21
2017-09-05T03:53:19.374Z,73.02
2017-09-05T03:55:13.886Z,72.92
2017-09-05T03:56:13.902Z,73.11
2017-09-05T03:58:07.358Z,73.11
2017-09-05T03:59:07.414Z,73.11
2017-09-05T04:01:03.382Z,73.50
2017-09-05T04:02:03.454Z,73.69
2017-09-05T04:03:57.886Z,73.69
2017-09-05T04:04:57.910Z,73.69
2017-09-05T04:06:51.390Z,73.79
2017-09-05T04:07:51.414Z,73.60
2017-09-05T04:09:46.031Z,73.98
2017-09-05T04:10:45.903Z,73.41
2017-09-05T04:12:39.639Z,73.69
2017-09-05T04:13:39.407Z,73.88
2017-09-05T04:15:33.983Z,74.17
2017-09-05T04:16:33.910Z,73.79
2017-09-05T04:18:27.392Z,74.17
2017-09-05T04:19:27.415Z,73.88
2017-09-05T04:21:20.863Z,73.79
2017-09-05T04:22:20.927Z,73.79
2017-09-05T04:24:15.382Z,74.27
2017-09-05T04:25:15.399Z,74.17
2017-09-05T04:27:09.887Z,74.08
2017-09-05T04:28:10.031Z,74.08
2017-09-05T04:30:03.432Z,74.37
2017-09-05T04:31:03.599Z,73.88
2017-09-05T04:32:57.855Z,74.08
2017-09-05T04:33:57.927Z,74.27
2017-09-05T04:35:51.416Z,73.88
2017-09-05T04:36:51.392Z,74.08
2017-09-05T04:38:45.856Z,74.17
2017-09-05T04:39:45.888Z,74.46
2017-09-05T04:41:40.384Z,74.37
2017-09-05T04:42:40.400Z,74.27
2017-09-05T04:44:35.119Z,74.75
2017-09-05T04:45:35.000Z,74.85
2017-09-05T04:47:29.361Z,74.94
2017-09-05T04:48:29.416Z,74.94
2017-09-05T04:50:22.904Z,74.98
2017-09-05T04:51:22.888Z,74.69
2017-09-05T04:53:17.344Z,74.79
2017-09-05T04:54:17.417Z,74.50
2017-09-05T04:56:11.890Z,74.55
2017-09-05T04:57:12.929Z,74.79
2017-09-05T04:59:06.360Z,74.75
2017-09-05T05:00:06.393Z,74.69
2017-09-05T05:02:00.881Z,74.60
2017-09-05T05:03:00.892Z,74.60
2017-09-05T05:04:55.389Z,74.98
2017-09-05T05:05:55.389Z,74.69
2017-09-05T05:07:49.844Z,74.79
2017-09-05T05:08:49.877Z,74.30
2017-09-05T05:10:44.361Z,74.40
2017-09-05T05:11:45.433Z,74.69
2017-09-05T05:13:38.977Z,74.88
2017-09-05T05:14:39.032Z,74.69
2017-09-05T05:16:32.568Z,74.50
2017-09-05T05:17:32.560Z,74.40
2017-09-05T05:19:26.065Z,74.50
2017-09-05T05:20:26.096Z,74.60
2017-09-05T05:22:20.632Z,74.94
2017-09-05T05:23:20.662Z,74.79
2017-09-05T05:25:15.153Z,74.69
2017-09-05T05:26:15.160Z,74.79
2017-09-05T05:28:09.617Z,74.79
2017-09-05T05:29:09.662Z,74.75
2017-09-05T05:31:04.131Z,74.79
2017-09-05T05:32:04.178Z,74.94
2017-09-05T05:33:57.603Z,75.17
2017-09-05T05:34:57.646Z,75.13
2017-09-05T05:36:51.111Z,75.42
2017-09-05T05:37:51.160Z,75.13
2017-09-05T05:39:45.591Z,75.17
2017-09-05T05:40:45.671Z,74.98
2017-09-05T05:42:40.104Z,74.60
2017-09-05T05:43:40.128Z,75.07
2017-09-05T05:45:33.583Z,74.50
2017-09-05T05:46:33.616Z,74.79
2017-09-05T05:48:29.640Z,74.79
2017-09-05T05:49:29.616Z,74.98
2017-09-05T05:51:23.071Z,74.79
2017-09-05T05:52:23.111Z,74.79
2017-09-05T05:54:17.600Z,74.98
2017-09-05T05:55:17.608Z,74.79
2017-09-05T05:57:12.064Z,74.98
2017-09-05T05:58:12.104Z,74.98
2017-09-05T06:00:05.584Z,74.88
2017-09-05T06:01:05.600Z,74.60
2017-09-05T06:02:59.056Z,74.50
2017-09-05T06:03:59.096Z,75.27
2017-09-05T06:05:53.584Z,74.60
2017-09-05T06:06:53.592Z,74.60
2017-09-05T06:08:48.048Z,74.69
2017-09-05T06:09:48.081Z,74.60
2017-09-05T06:11:42.569Z,74.79
2017-09-05T06:12:42.593Z,74.60
2017-09-05T06:14:36.072Z,74.98
2017-09-05T06:15:36.081Z,74.60
2017-09-05T06:17:30.604Z,74.40
2017-09-05T06:18:30.601Z,74.88
2017-09-05T06:20:24.562Z,74.50
2017-09-05T06:21:24.073Z,74.60
2017-09-05T06:23:18.544Z,74.50
2017-09-05T06:24:18.612Z,74.21
2017-09-05T06:26:13.081Z,74.30
2017-09-05T06:27:13.082Z,74.11
2017-09-05T06:29:07.521Z,74.50
2017-09-05T06:30:07.577Z,74.34
2017-09-05T06:32:02.090Z,74.25
2017-09-05T06:33:02.057Z,74.15
2017-09-05T06:34:56.517Z,74.34
2017-09-05T06:35:56.553Z,73.86
2017-09-05T06:37:51.019Z,73.77
2017-09-05T06:38:51.054Z,73.67
2017-09-05T06:40:45.506Z,73.77
2017-09-05T06:41:45.546Z,73.19
2017-09-05T06:43:40.033Z,73.19
2017-09-05T06:44:40.042Z,73.09
2017-09-05T06:46:34.498Z,73.28
2017-09-05T06:47:34.539Z,73.47
2017-09-05T06:49:29.026Z,73.42
2017-09-05T06:50:29.027Z,73.47
2017-09-05T06:52:22.493Z,72.71
2017-09-05T06:53:22.519Z,72.71
2017-09-05T06:55:17.006Z,72.80
2017-09-05T06:56:17.015Z,73.13
2017-09-05T06:58:11.484Z,72.65
2017-09-05T06:59:11.520Z,72.65
2017-09-05T07:01:06.008Z,72.84
2017-09-05T07:02:06.016Z,72.74
2017-09-05T07:03:59.471Z,72.74
2017-09-05T07:04:59.512Z,72.65
2017-09-05T07:06:54.000Z,72.26
2017-09-05T07:07:54.016Z,72.45
2017-09-05T07:09:48.464Z,72.55
2017-09-05T07:10:48.513Z,72.74
2017-09-05T07:12:42.985Z,71.81
2017-09-05T07:13:43.072Z,72.45
2017-09-05T07:15:37.505Z,72.01
2017-09-05T07:16:37.504Z,72.11
2017-09-05T07:18:31.968Z,71.81
2017-09-05T07:19:32.001Z,71.53
2017-09-05T07:21:27.960Z,71.62
2017-09-05T07:22:28.001Z,71.53
2017-09-05T07:24:22.497Z,71.66
2017-09-05T07:25:22.497Z,71.08
2017-09-05T07:27:16.961Z,71.08
2017-09-05T07:28:16.987Z,71.28
2017-09-05T07:30:11.489Z,70.60
2017-09-05T07:31:11.513Z,70.60
2017-09-05T07:33:04.977Z,70.31
2017-09-05T07:34:05.001Z,70.12
2017-09-05T07:35:58.569Z,70.60
2017-09-05T07:36:58.505Z,70.83
2017-09-05T07:38:52.972Z,70.35
2017-09-05T07:39:53.009Z,70.44
2017-09-05T07:41:47.497Z,69.38
2017-09-05T07:42:47.521Z,69.80
2017-09-05T07:44:40.970Z,69.03
2017-09-05T07:45:41.009Z,69.23
2017-09-05T07:47:35.514Z,68.45
2017-09-05T07:48:35.518Z,68.65
2017-09-05T07:50:30.002Z,68.26
2017-09-05T07:51:30.048Z,67.97
2017-09-05T07:53:23.578Z,68.65
2017-09-05T07:54:23.570Z,68.49
2017-09-05T07:56:18.033Z,67.62
2017-09-05T07:57:18.065Z,67.33
2017-09-05T07:59:12.562Z,66.46
2017-09-05T08:00:12.577Z,66.30
2017-09-05T08:02:07.043Z,66.59
2017-09-05T08:03:07.083Z,66.49
2017-09-05T08:05:03.122Z,66.59
2017-09-05T08:06:03.099Z,66.30
2017-09-05T08:07:57.563Z,66.11
2017-09-05T08:08:57.619Z,66.59
2017-09-05T08:10:52.083Z,65.47
2017-09-05T08:11:52.112Z,66.05
2017-09-05T08:13:45.570Z,65.66
2017-09-05T08:14:45.611Z,65.95
2017-09-05T08:16:40.115Z,65.37
2017-09-05T08:17:40.131Z,64.63
2017-09-05T08:19:34.595Z,63.76
2017-09-05T08:20:34.635Z,63.82
2017-09-05T08:22:29.147Z,64.21
2017-09-05T08:23:29.140Z,64.01
2017-09-05T08:25:23.627Z,64.21
2017-09-05T08:26:23.659Z,63.85
2017-09-05T08:29:18.164Z,63.76
2017-09-05T08:31:12.627Z,63.37
2017-09-05T08:32:12.667Z,64.24
2017-09-05T08:34:07.155Z,63.98
2017-09-05T08:35:07.188Z,63.47
2017-09-05T08:37:01.653Z,62.89
2017-09-05T08:38:01.692Z,63.31
2017-09-05T08:39:55.181Z,62.63
2017-09-05T08:40:55.197Z,62.92
2017-09-05T08:42:49.654Z,62.34
2017-09-05T08:43:49.701Z,62.44
2017-09-05T08:45:44.228Z,61.89
2017-09-05T08:46:44.204Z,61.79
2017-09-05T08:48:40.196Z,61.21
2017-09-05T08:49:40.236Z,61.69
2017-09-05T08:51:34.716Z,61.24
2017-09-05T08:52:34.741Z,61.33
2017-09-05T08:54:29.292Z,60.95
2017-09-05T08:55:29.261Z,60.27
2017-09-05T08:57:23.723Z,60.50
2017-09-05T08:58:23.788Z,60.30
2017-09-05T09:00:17.252Z,60.04
2017-09-05T09:01:17.301Z,59.75
2017-09-05T09:03:10.740Z,59.17
2017-09-05T09:04:10.789Z,59.30
2017-09-05T09:06:05.261Z,58.69
2017-09-05T09:07:05.293Z,57.91
2017-09-05T09:08:58.749Z,57.94
2017-09-05T09:09:58.805Z,57.53
2017-09-05T09:11:52.310Z,57.07
2017-09-05T09:12:52.325Z,56.87
2017-09-05T09:14:45.789Z,56.49
2017-09-05T09:15:45.862Z,56.97
2017-09-05T09:17:40.334Z,56.97
2017-09-05T09:18:40.354Z,57.07
2017-09-05T09:20:33.813Z,56.39
2017-09-05T09:21:33.854Z,56.10
2017-09-05T09:23:28.341Z,55.83
2017-09-05T09:24:28.374Z,55.83
2017-09-05T09:26:22.894Z,56.03
2017-09-05T09:27:22.902Z,55.74
2017-09-05T09:29:17.439Z,55.93
2017-09-05T09:30:17.407Z,55.64
2017-09-05T09:32:11.879Z,55.06
2017-09-05T09:33:11.919Z,55.06
2017-09-05T09:35:05.447Z,54.41
2017-09-05T09:36:05.423Z,55.08
2017-09-05T09:37:59.904Z,54.53
2017-09-05T09:38:59.943Z,53.85
2017-09-05T09:40:54.480Z,53.75
2017-09-05T09:41:54.464Z,54.05
2017-09-05T09:43:47.463Z,53.27
2017-09-05T09:44:47.471Z,52.86
2017-09-05T09:46:41.944Z,53.34
2017-09-05T09:47:41.984Z,53.53
2017-09-05T09:49:36.503Z,53.27
2017-09-05T09:50:36.504Z,53.56
2017-09-05T09:52:29.984Z,53.37
2017-09-05T09:53:30.010Z,53.17
2017-09-05T09:55:24.520Z,52.50
2017-09-05T09:56:24.537Z,53.08
2017-09-05T09:58:19.008Z,53.08
2017-09-05T09:59:19.056Z,52.91
2017-09-05T10:01:13.552Z,51.84
2017-09-05T10:02:13.568Z,52.03
2017-09-05T10:04:08.064Z,51.48
2017-09-05T10:05:08.081Z,51.77
2017-09-05T10:07:02.552Z,51.18
2017-09-05T10:08:02.601Z,51.11
2017-09-05T10:09:56.096Z,50.24
2017-09-05T10:10:56.129Z,50.75
2017-09-05T10:12:52.137Z,49.71
2017-09-05T10:13:52.160Z,48.44
2017-09-05T10:15:46.665Z,49.05
2017-09-05T10:16:46.689Z,48.97
2017-09-05T10:18:40.161Z,46.83
2017-09-05T10:19:40.177Z,46.44
2017-09-05T10:21:34.689Z,46.03
2017-09-05T10:22:34.689Z,45.64
2017-09-05T10:24:29.169Z,45.52
2017-09-05T10:25:29.371Z,45.52
2017-09-05T10:27:23.761Z,45.72
2017-09-05T10:28:23.753Z,46.20
2017-09-05T10:30:18.497Z,46.30
2017-09-05T10:31:18.394Z,46.88
2017-09-05T10:33:12.890Z,46.18
2017-09-05T10:34:12.803Z,46.86
2017-09-05T10:36:07.302Z,47.03
2017-09-05T10:37:07.487Z,47.03
2017-09-05T10:39:01.870Z,47.61
2017-09-05T10:40:01.871Z,48.00
2017-09-05T10:41:56.327Z,49.68
2017-09-05T10:42:56.351Z,49.68
2017-09-05T10:44:50.791Z,48.71
2017-09-05T10:45:50.911Z,48.63
2017-09-05T10:47:45.335Z,48.68
2017-09-05T10:48:45.359Z,47.03
2017-09-05T10:50:38.544Z,46.95
2017-09-05T10:51:38.495Z,45.88
2017-09-05T10:53:32.991Z,45.05
2017-09-05T10:54:33.063Z,44.95
2017-09-05T10:56:27.503Z,44.46
2017-09-05T10:57:27.552Z,43.78
2017-09-05T10:59:23.740Z,44.37
2017-09-05T11:00:23.688Z,44.07
2017-09-05T11:02:18.199Z,43.39
2017-09-05T11:03:18.359Z,43.47
2017-09-05T11:05:14.407Z,43.39
2017-09-05T11:06:14.328Z,43.29
2017-09-05T11:08:10.008Z,43.32
2017-09-05T11:09:09.939Z,43.92
2017-09-05T11:11:04.408Z,42.65
2017-09-05T11:12:04.456Z,41.66
2017-09-05T11:13:58.960Z,42.07
2017-09-05T11:14:58.968Z,41.67
2017-09-05T11:16:53.440Z,41.58
2017-09-05T11:17:53.488Z,41.41
2017-09-05T11:19:47.137Z,40.53
2017-09-05T11:20:47.020Z,40.55
2017-09-05T11:22:41.488Z,39.76
2017-09-05T11:23:41.528Z,40.08
2017-09-05T11:25:35.060Z,39.28
2017-09-05T11:26:35.048Z,39.57
2017-09-05T11:28:29.505Z,38.96
2017-09-05T11:29:29.561Z,38.75
2017-09-05T11:31:24.059Z,39.53
2017-09-05T11:32:24.073Z,40.31
2017-09-05T11:34:18.593Z,40.14
2017-09-05T11:35:18.601Z,39.36
2017-09-05T11:37:13.105Z,39.84
2017-09-05T11:38:14.109Z,40.95
2017-09-05T11:40:07.653Z,39.72
2017-09-05T11:41:08.101Z,38.06
2017-09-05T11:43:02.254Z,37.10
2017-09-05T11:44:02.622Z,35.42
2017-09-05T11:45:55.909Z,36.44
2017-09-05T11:46:56.030Z,36.24
2017-09-05T11:48:50.405Z,37.77
2017-09-05T11:49:50.965Z,37.85
2017-09-05T11:51:46.669Z,39.41
2017-09-05T11:52:47.629Z,39.78
2017-09-05T11:54:40.895Z,40.64
2017-09-05T11:55:40.942Z,40.64
2017-09-05T11:57:35.413Z,41.30
2017-09-05T11:58:35.438Z,41.60
2017-09-05T12:00:29.918Z,42.06
2017-09-05T12:01:29.982Z,42.45
2017-09-05T12:03:24.518Z,43.33
2017-09-05T12:04:24.493Z,43.43
2017-09-05T12:06:19.047Z,44.23
2017-09-05T12:07:19.013Z,45.73
2017-09-05T12:09:13.549Z,43.33
2017-09-05T12:10:13.565Z,43.96
2017-09-05T12:12:07.989Z,39.16
2017-09-05T12:13:08.038Z,39.33
2017-09-05T12:15:02.573Z,39.41
2017-09-05T12:16:02.567Z,39.78
2017-09-05T12:17:57.026Z,40.37
2017-09-05T12:18:57.077Z,40.06
2017-09-05T12:20:51.558Z,41.01
2017-09-05T12:21:51.598Z,41.60
2017-09-05T12:23:45.110Z,41.96
2017-09-05T12:24:45.118Z,42.84
2017-09-05T12:26:38.942Z,42.82
2017-09-05T12:27:38.653Z,43.11
2017-09-05T12:29:47.926Z,43.58
2017-09-05T12:30:47.962Z,44.16
2017-09-05T12:32:41.462Z,45.23
2017-09-05T12:33:41.465Z,45.14
2017-09-05T12:35:34.991Z,45.72
2017-09-05T12:36:34.966Z,45.62
2017-09-05T12:38:29.471Z,45.52
2017-09-05T12:39:29.511Z,45.91
2017-09-05T12:41:23.975Z,45.81
2017-09-05T12:42:24.015Z,45.91
2017-09-05T12:44:19.055Z,46.47
2017-09-05T12:45:18.566Z,46.77
2017-09-05T12:47:13.019Z,46.28
2017-09-05T12:48:13.051Z,46.08
2017-09-05T12:50:07.827Z,46.37
2017-09-05T12:51:07.788Z,47.15
2017-09-05T12:53:02.332Z,46.77
2017-09-05T12:54:02.363Z,47.25
2017-09-05T12:55:56.860Z,47.93
2017-09-05T12:56:56.836Z,47.83
2017-09-05T12:58:50.348Z,48.22
2017-09-05T12:59:50.364Z,48.13
2017-09-05T13:01:44.834Z,48.61
2017-09-05T13:02:44.875Z,49.10
2017-09-05T13:04:39.371Z,48.44
2017-09-05T13:05:39.394Z,48.15
2017-09-05T13:07:33.851Z,47.88
2017-09-05T13:08:33.890Z,47.78
2017-09-05T13:10:28.371Z,47.17
2017-09-05T13:11:28.395Z,47.30
2017-09-05T13:13:22.923Z,47.17
2017-09-05T13:14:22.996Z,46.98
2017-09-05T13:16:17.404Z,47.47
2017-09-05T13:17:17.450Z,48.15
2017-09-05T13:19:11.019Z,47.86
2017-09-05T13:20:11.579Z,48.15
2017-09-05T13:22:05.459Z,47.86
2017-09-05T13:23:05.531Z,48.36
2017-09-05T13:24:58.531Z,48.39
2017-09-05T13:25:58.646Z,47.80
2017-09-05T13:27:52.037Z,47.03
2017-09-05T13:28:52.080Z,46.73
2017-09-05T13:30:48.348Z,46.05
2017-09-05T13:31:48.373Z,46.25
2017-09-05T13:33:42.684Z,46.34
2017-09-05T13:34:42.749Z,46.54
2017-09-05T13:36:36.293Z,45.54
2017-09-05T13:37:36.326Z,45.25
2017-09-05T13:39:30.788Z,45.76
2017-09-05T13:40:30.813Z,45.76
2017-09-05T13:42:26.808Z,45.37
2017-09-05T13:43:26.820Z,45.47
2017-09-05T13:45:21.332Z,45.18
2017-09-05T13:46:22.321Z,45.47
2017-09-05T13:48:15.833Z,45.18
2017-09-05T13:49:15.847Z,45.08
2017-09-05T13:51:10.308Z,45.18
2017-09-05T13:52:10.356Z,44.98
2017-09-05T13:54:04.845Z,45.47
2017-09-05T13:55:04.869Z,45.57
2017-09-05T13:56:59.370Z,45.08
2017-09-05T13:58:00.376Z,45.08
2017-09-05T13:59:53.848Z,45.47
2017-09-05T14:00:53.893Z,45.18
2017-09-05T14:02:46.887Z,45.18
2017-09-05T14:03:46.908Z,45.35
2017-09-05T14:05:41.413Z,45.35
2017-09-05T14:06:41.445Z,45.45
2017-09-05T14:08:35.896Z,45.54
2017-09-05T14:09:35.936Z,45.45
2017-09-05T14:11:30.416Z,45.54
2017-09-05T14:12:30.448Z,45.54
2017-09-05T14:14:26.513Z,45.74
2017-09-05T14:15:26.448Z,45.64
2017-09-05T14:17:19.961Z,45.94
2017-09-05T14:18:20.982Z,45.86
2017-09-05T14:20:14.438Z,45.67
2017-09-05T14:21:15.471Z,45.47
2017-09-05T14:23:07.975Z,45.57
2017-09-05T14:24:07.990Z,45.47
2017-09-05T14:26:01.511Z,45.29
2017-09-05T14:27:01.495Z,45.68
2017-09-05T14:28:55.975Z,45.88
2017-09-05T14:29:55.999Z,44.90
2017-09-05T14:31:50.487Z,44.71
2017-09-05T14:32:50.511Z,44.32
2017-09-05T14:34:44.996Z,43.93
2017-09-05T14:35:45.008Z,44.32
2017-09-05T14:37:38.504Z,44.42
2017-09-05T14:38:38.528Z,44.42
2017-09-05T14:40:32.983Z,44.42
2017-09-05T14:41:40.683Z,44.52
2017-09-05T14:43:27.559Z,44.32
2017-09-05T14:44:27.544Z,43.93
2017-09-05T14:46:22.064Z,44.13
2017-09-05T14:47:22.085Z,44.03
2017-09-05T14:49:16.519Z,43.40
2017-09-05T14:50:16.569Z,44.09
2017-09-05T14:52:10.104Z,44.74
2017-09-05T14:53:10.104Z,44.84
2017-09-05T14:55:03.552Z,45.23
2017-09-05T14:56:03.600Z,45.40
2017-09-05T14:57:58.080Z,45.69
2017-09-05T14:58:58.097Z,46.67
2017-09-05T15:00:51.816Z,46.86
2017-09-05T15:01:51.872Z,46.67
2017-09-05T15:03:45.352Z,46.88
2017-09-05T15:04:45.361Z,46.50
2017-09-05T15:06:39.834Z,46.69
2017-09-05T15:07:39.897Z,45.81
2017-09-05T15:09:33.385Z,45.50
2017-09-05T15:10:33.393Z,45.69
2017-09-05T15:12:26.874Z,45.98
2017-09-05T15:13:26.914Z,46.28
2017-09-05T15:15:21.425Z,46.77
2017-09-05T15:16:21.425Z,46.47
2017-09-05T15:18:14.929Z,46.96
2017-09-05T15:19:14.937Z,47.15
2017-09-05T15:21:09.457Z,47.44
2017-09-05T15:22:09.449Z,47.44
2017-09-05T15:24:03.922Z,47.81
2017-09-05T15:25:03.970Z,48.00
2017-09-05T15:26:58.554Z,48.10
2017-09-05T15:27:58.475Z,48.39
2017-09-05T15:29:52.946Z,48.10
2017-09-05T15:30:52.980Z,48.20
2017-09-05T15:32:47.474Z,48.20
2017-09-05T15:33:47.531Z,48.49
2017-09-05T15:35:42.970Z,48.68
2017-09-05T15:36:43.178Z,48.58
2017-09-05T15:38:37.650Z,48.78
2017-09-05T15:39:37.571Z,48.78
2017-09-05T15:41:32.042Z,48.32
2017-09-05T15:42:32.066Z,48.00
2017-09-05T15:44:26.522Z,48.22
2017-09-05T15:45:26.571Z,48.30
2017-09-05T15:47:21.050Z,48.58
2017-09-05T15:48:21.091Z,48.49
2017-09-05T15:50:15.643Z,48.68
2017-09-05T15:51:15.612Z,48.49
2017-09-05T15:53:10.115Z,48.88
2017-09-05T15:54:10.155Z,49.07
2017-09-05T15:56:04.723Z,49.95
2017-09-05T15:57:04.644Z,49.05
2017-09-05T15:58:59.147Z,49.63
2017-09-05T15:59:59.171Z,49.54
2017-09-05T16:01:52.668Z,49.63
2017-09-05T16:02:53.107Z,49.82
2017-09-05T16:04:48.403Z,50.09
2017-09-05T16:05:48.764Z,50.09
2017-09-05T16:07:42.860Z,50.48
2017-09-05T16:08:42.892Z,50.58
2017-09-05T16:10:37.324Z,50.56
2017-09-05T16:11:37.299Z,51.04
2017-09-05T16:13:31.836Z,50.65
2017-09-05T16:14:31.820Z,51.04
2017-09-05T16:16:26.557Z,51.04
2017-09-05T16:17:26.428Z,51.23
2017-09-05T16:19:20.053Z,51.50
2017-09-05T16:20:19.949Z,51.40
2017-09-05T16:22:14.629Z,52.08
2017-09-05T16:23:14.412Z,52.18
2017-09-05T16:25:09.180Z,52.08
2017-09-05T16:26:09.157Z,51.98
2017-09-05T16:28:02.341Z,52.47
2017-09-05T16:29:02.404Z,52.28
2017-09-05T16:31:02.499Z,52.37
2017-09-05T16:31:57.962Z,52.66
2017-09-05T16:33:52.482Z,52.47
2017-09-05T16:34:52.746Z,52.47
2017-09-05T16:36:47.274Z,52.66
2017-09-05T16:37:47.010Z,52.37
2017-09-05T16:39:41.874Z,52.66
2017-09-05T16:40:41.514Z,52.76
2017-09-05T16:42:36.010Z,52.28
2017-09-05T16:43:36.034Z,53.12
2017-09-05T16:45:30.473Z,53.05
2017-09-05T16:46:31.510Z,53.05
2017-09-05T16:48:24.990Z,52.54
2017-09-05T16:49:25.022Z,52.93
2017-09-05T16:51:18.479Z,52.83
2017-09-05T16:52:18.542Z,52.44
2017-09-05T16:54:12.998Z,52.44
2017-09-05T16:55:13.024Z,52.64
2017-09-05T16:57:07.479Z,52.93
2017-09-05T16:58:07.527Z,53.12
2017-09-05T17:00:02.021Z,52.34
2017-09-05T17:01:02.031Z,52.34
2017-09-05T17:02:56.551Z,52.44
2017-09-05T17:03:56.553Z,52.64
2017-09-05T17:05:51.023Z,52.34
2017-09-05T17:06:51.064Z,52.12
2017-09-05T17:08:45.541Z,52.32
2017-09-05T17:09:45.567Z,52.22
2017-09-05T17:11:40.096Z,52.22
2017-09-05T17:12:40.167Z,52.42
2017-09-05T17:14:34.551Z,52.80
2017-09-05T17:15:34.591Z,52.42
2017-09-05T17:17:29.072Z,52.80
2017-09-05T17:18:29.096Z,52.80
2017-09-05T17:20:23.624Z,53.19
2017-09-05T17:21:23.600Z,53.00
2017-09-05T17:23:17.072Z,53.09
2017-09-05T17:24:18.096Z,53.39
2017-09-05T17:26:11.593Z,53.00
2017-09-05T17:27:11.613Z,53.09
2017-09-05T17:29:06.125Z,53.17
2017-09-05T17:30:06.124Z,52.80
2017-09-05T17:31:59.580Z,53.55
2017-09-05T17:32:59.623Z,53.19
2017-09-05T17:34:54.116Z,53.67
2017-09-05T17:35:54.140Z,53.87
2017-09-05T17:37:48.671Z,53.97
2017-09-05T17:38:48.653Z,53.87
2017-09-05T17:40:43.141Z,54.03
2017-09-05T17:41:43.205Z,54.06
2017-09-05T17:43:39.737Z,53.65
2017-09-05T17:45:53.372Z,54.03
2017-09-05T17:46:52.869Z,53.85
2017-09-05T17:48:46.340Z,54.43
2017-09-05T17:49:46.485Z,54.03
2017-09-05T17:51:39.813Z,54.33
2017-09-05T17:52:40.068Z,54.43
2017-09-05T17:54:36.029Z,54.33
2017-09-05T17:56:49.213Z,54.91
2017-09-05T17:57:49.941Z,54.62
2017-09-05T17:59:43.637Z,54.71
2017-09-05T18:00:43.629Z,54.81
2017-09-05T18:02:38.077Z,55.20
2017-09-05T18:03:38.214Z,55.10
2017-09-05T18:05:35.805Z,55.66
2017-09-05T18:06:35.422Z,55.76
2017-09-05T18:08:27.879Z,55.85
2017-09-05T18:09:27.854Z,56.04
2017-09-05T18:11:22.373Z,55.66
2017-09-05T18:12:22.365Z,55.94
2017-09-05T18:14:17.038Z,56.04
2017-09-05T18:15:17.040Z,56.14
2017-09-05T18:17:10.398Z,56.52
2017-09-05T18:18:10.574Z,56.34
2017-09-05T18:20:07.483Z,56.43
2017-09-05T18:22:20.022Z,56.92
2017-09-05T18:23:19.998Z,56.82
2017-09-05T18:25:13.526Z,57.11
2017-09-05T18:26:13.550Z,57.18
2017-09-05T18:28:08.046Z,57.79
2017-09-05T18:29:08.055Z,57.11
2017-09-05T18:31:08.804Z,57.50
2017-09-05T18:32:05.162Z,57.46
2017-09-05T18:33:58.302Z,57.86
2017-09-05T18:34:58.406Z,57.66
2017-09-05T18:36:52.523Z,57.95
2017-09-05T18:37:52.642Z,58.53
2017-09-05T18:39:47.123Z,58.82
2017-09-05T18:40:47.234Z,58.63
2017-09-05T18:42:43.034Z,58.14
2017-09-05T18:43:43.077Z,58.24
2017-09-05T18:45:38.059Z,58.53
2017-09-05T18:46:37.762Z,58.04